Time;durP1;ratioP1;P1;durP2;ratioP2;P2;SDS_P1;SDS_P2;PMS_P1;PMS_P2;Temp;Humidity;BMP_temperature;BMP_pressure;BME280_temperature;BME280_humidity;BME280_pressure;Samples;Min_cycle;Max_cycle;Signal;HPM_P1;HPM_P2
2022/07/22 00:01:53;;;;;;;23.45;21.95;;;25.00;52.60;;;;;;4951862;28;20062;-81
2022/07/22 00:04:19;;;;;;;24.25;22.48;;;25.00;52.50;;;;;;4964030;28;20031;-81
2022/07/22 00:06:45;;;;;;;23.85;22.35;;;25.00;52.90;;;;;;4938149;29;20020;-81
2022/07/22 00:09:11;;;;;;;21.70;20.20;;;25.00;52.60;;;;;;4952936;28;20437;-81
2022/07/22 00:11:37;;;;;;;21.63;20.27;;;25.00;52.80;;;;;;4956035;29;20035;-81
2022/07/22 00:14:04;;;;;;;22.02;20.67;;;24.90;53.20;;;;;;4955960;28;20047;-81
2022/07/22 00:16:30;;;;;;;21.83;20.23;;;24.70;53.60;;;;;;4954079;28;20046;-81
2022/07/22 00:18:56;;;;;;;22.55;20.95;;;24.60;53.70;;;;;;4956426;28;20501;-81
2022/07/22 00:21:22;;;;;;;24.83;23.33;;;24.50;53.90;;;;;;4955114;29;20027;-81
2022/07/22 00:23:48;;;;;;;23.95;22.27;;;24.50;53.90;;;;;;4954752;29;20512;-81
2022/07/22 00:26:14;;;;;;;22.30;20.83;;;24.60;53.90;;;;;;4956139;29;20039;-82
2022/07/22 00:28:40;;;;;;;23.38;21.63;;;24.60;54.20;;;;;;4956467;29;20496;-81
2022/07/22 00:31:06;;;;;;;22.38;20.70;;;24.40;54.60;;;;;;4955621;28;20043;-82
2022/07/22 00:33:32;;;;;;;23.77;22.20;;;24.20;55.00;;;;;;4956036;29;20394;-81
2022/07/22 00:35:58;;;;;;;24.20;22.60;;;24.30;54.90;;;;;;4938963;29;20043;-81
2022/07/22 00:38:25;;;;;;;23.92;22.35;;;24.40;54.70;;;;;;4955855;29;20393;-82
2022/07/22 00:40:51;;;;;;;23.38;21.63;;;24.40;54.60;;;;;;4955768;29;20027;-81
2022/07/22 00:43:17;;;;;;;22.75;21.05;;;24.40;54.90;;;;;;4956024;29;20062;-81
2022/07/22 00:45:43;;;;;;;22.05;20.52;;;24.30;55.40;;;;;;4954930;28;20031;-81
2022/07/22 00:48:09;;;;;;;20.63;19.23;;;24.10;55.40;;;;;;4955707;29;20046;-81
2022/07/22 00:50:35;;;;;;;25.00;23.45;;;24.20;55.20;;;;;;4955824;29;20034;-81
2022/07/22 00:53:01;;;;;;;23.08;21.48;;;24.30;55.10;;;;;;4955399;29;20031;-82
2022/07/22 00:55:28;;;;;;;21.20;19.80;;;24.30;55.00;;;;;;4954380;29;20031;-81
2022/07/22 00:57:54;;;;;;;22.40;20.65;;;24.40;55.20;;;;;;4955431;29;20038;-81
2022/07/22 01:00:20;;;;;;;23.25;21.25;;;24.20;55.80;;;;;;4957572;28;20505;-81
2022/07/22 01:02:46;;;;;;;22.60;20.77;;;24.20;55.60;;;;;;4970407;28;20036;-81
2022/07/22 01:05:13;;;;;;;21.40;20.00;;;24.20;55.40;;;;;;4945179;29;20494;-81
2022/07/22 01:07:39;;;;;;;24.02;22.58;;;24.20;55.50;;;;;;4946826;29;20042;-81
2022/07/22 01:10:06;;;;;;;23.10;21.48;;;24.30;55.70;;;;;;4955404;29;20042;-81
2022/07/22 01:12:32;;;;;;;21.92;20.42;;;24.20;55.80;;;;;;4955375;28;20039;-81
2022/07/22 01:14:58;;;;;;;24.35;22.58;;;24.20;55.50;;;;;;4955046;28;20406;-82
2022/07/22 01:17:24;;;;;;;22.98;21.48;;;24.20;55.40;;;;;;4954638;28;20034;-81
2022/07/22 01:19:50;;;;;;;21.65;20.17;;;24.20;55.60;;;;;;4955676;28;20116;-81
2022/07/22 01:22:16;;;;;;;22.30;20.75;;;24.20;55.90;;;;;;4952612;28;20031;-81
2022/07/22 01:24:42;;;;;;;21.20;19.60;;;24.30;55.50;;;;;;4955082;29;20050;-81
2022/07/22 01:27:08;;;;;;;22.20;20.60;;;24.20;55.60;;;;;;4955142;29;20501;-82
2022/07/22 01:29:35;;;;;;;22.02;20.42;;;24.20;55.90;;;;;;4954602;29;20046;-81
2022/07/22 01:32:01;;;;;;;22.17;20.58;;;24.20;55.80;;;;;;4953272;28;20031;-81
2022/07/22 01:34:27;;;;;;;22.00;20.17;;;24.10;55.90;;;;;;4954830;29;20039;-81
2022/07/22 01:36:53;;;;;;;27.83;25.73;;;24.10;56.20;;;;;;4954825;29;20027;-81
2022/07/22 01:39:19;;;;;;;32.85;30.98;;;24.00;56.30;;;;;;4954883;29;20386;-81
2022/07/22 01:41:45;;;;;;;29.75;27.63;;;24.00;56.70;;;;;;4954791;29;20023;-81
2022/07/22 01:44:11;;;;;;;33.28;31.23;;;23.90;56.70;;;;;;4954421;29;20386;-81
2022/07/22 01:46:37;;;;;;;35.10;32.70;;;23.80;56.90;;;;;;4937175;28;20047;-81
2022/07/22 01:49:04;;;;;;;29.48;27.60;;;23.80;57.00;;;;;;4952733;29;20046;-81
2022/07/22 01:51:30;;;;;;;28.27;26.50;;;23.80;57.00;;;;;;4954558;28;20041;-81
2022/07/22 01:53:56;;;;;;;27.98;26.15;;;23.80;57.00;;;;;;4954620;29;20043;-81
2022/07/22 01:56:22;;;;;;;28.48;26.67;;;23.80;57.30;;;;;;4954323;29;20027;-81
2022/07/22 01:58:49;;;;;;;25.17;23.48;;;23.90;57.10;;;;;;4953126;29;20055;-81
2022/07/22 02:01:15;;;;;;;26.60;24.60;;;23.90;57.10;;;;;;4957861;28;20039;-81
2022/07/22 02:03:41;;;;;;;22.98;21.45;;;23.90;56.90;;;;;;4953138;29;20031;-81
2022/07/22 02:06:07;;;;;;;21.75;20.35;;;23.70;57.30;;;;;;4954181;29;20035;-81
2022/07/22 02:08:33;;;;;;;21.15;19.55;;;23.60;57.10;;;;;;4935445;29;20028;-81
2022/07/22 02:10:59;;;;;;;20.27;18.70;;;23.70;56.70;;;;;;4934834;29;20128;-81
2022/07/22 02:13:25;;;;;;;19.65;18.35;;;23.40;57.20;;;;;;4933724;29;20028;-81
2022/07/22 02:15:51;;;;;;;20.42;18.95;;;23.20;57.30;;;;;;4934719;28;20040;-81
2022/07/22 02:18:18;;;;;;;19.65;18.25;;;23.10;57.70;;;;;;4933455;29;20032;-81
2022/07/22 02:20:44;;;;;;;19.88;18.45;;;23.10;57.70;;;;;;4933809;29;20027;-81
2022/07/22 02:23:11;;;;;;;20.42;19.05;;;23.20;57.70;;;;;;4935303;29;20504;-81
2022/07/22 02:25:37;;;;;;;20.25;18.95;;;23.20;57.50;;;;;;4934631;29;20027;-81
2022/07/22 02:28:03;;;;;;;20.45;19.05;;;23.10;57.70;;;;;;4933849;29;20034;-81
2022/07/22 02:30:30;;;;;;;20.48;19.17;;;23.10;58.10;;;;;;4934013;28;20058;-81
2022/07/22 02:32:57;;;;;;;20.15;18.65;;;23.10;57.70;;;;;;4934186;29;20035;-81
2022/07/22 02:35:23;;;;;;;20.33;18.85;;;23.10;57.90;;;;;;4934743;29;20490;-81
2022/07/22 02:37:49;;;;;;;20.63;19.33;;;23.10;57.90;;;;;;4933360;29;20055;-81
2022/07/22 02:40:15;;;;;;;20.42;18.88;;;23.10;57.80;;;;;;4933076;29;20399;-81
2022/07/22 02:42:41;;;;;;;21.58;20.00;;;23.10;57.70;;;;;;4933062;29;20368;-81
2022/07/22 02:45:08;;;;;;;19.95;18.25;;;23.10;57.60;;;;;;4934071;28;20035;-81
2022/07/22 02:47:34;;;;;;;19.38;18.13;;;23.10;57.90;;;;;;4933074;29;20032;-81
2022/07/22 02:50:00;;;;;;;20.65;19.15;;;22.80;58.50;;;;;;4934404;29;20031;-81
2022/07/22 02:52:26;;;;;;;21.55;19.95;;;22.80;58.50;;;;;;4933181;29;20035;-81
2022/07/22 02:54:52;;;;;;;20.42;19.23;;;22.80;58.50;;;;;;4933824;29;20039;-81
2022/07/22 02:57:18;;;;;;;20.17;18.80;;;22.70;58.80;;;;;;4934334;29;20494;-81
2022/07/22 02:59:44;;;;;;;20.65;19.20;;;22.60;59.20;;;;;;4942091;28;20070;-81
2022/07/22 03:02:10;;;;;;;20.77;19.33;;;22.50;59.40;;;;;;4952684;28;20035;-81
2022/07/22 03:04:37;;;;;;;19.27;17.70;;;22.50;59.70;;;;;;4953150;28;20042;-81
2022/07/22 03:07:03;;;;;;;18.38;17.27;;;22.30;60.30;;;;;;4946287;29;20043;-81
2022/07/22 03:09:29;;;;;;;18.65;17.35;;;22.20;61.00;;;;;;4933879;29;20039;-81
2022/07/22 03:11:55;;;;;;;18.80;17.35;;;22.20;60.90;;;;;;4934086;29;20039;-81
2022/07/22 03:14:21;;;;;;;18.25;16.92;;;22.10;61.50;;;;;;4932638;29;20070;-81
2022/07/22 03:16:48;;;;;;;18.13;16.70;;;22.00;62.20;;;;;;4933191;28;20059;-81
2022/07/22 03:19:14;;;;;;;17.48;16.17;;;22.00;62.10;;;;;;4932576;29;20039;-81
2022/07/22 03:21:40;;;;;;;18.05;16.60;;;22.00;62.00;;;;;;4932870;29;20028;-81
2022/07/22 03:24:06;;;;;;;17.77;16.48;;;22.00;61.70;;;;;;4933517;29;20042;-81
2022/07/22 03:26:32;;;;;;;22.10;20.40;;;22.10;61.40;;;;;;4932796;29;20028;-81
2022/07/22 03:28:58;;;;;;;21.48;20.23;;;22.30;60.70;;;;;;4933945;29;20046;-81
2022/07/22 03:31:24;;;;;;;25.20;23.42;;;22.20;61.10;;;;;;4932129;28;20024;-81
2022/07/22 03:33:50;;;;;;;26.95;25.20;;;22.10;61.50;;;;;;4932459;29;20403;-81
2022/07/22 03:36:16;;;;;;;27.50;25.73;;;22.10;61.00;;;;;;4932552;29;20035;-81
2022/07/22 03:38:42;;;;;;;29.92;27.33;;;22.10;61.10;;;;;;4932253;29;20368;-81
2022/07/22 03:41:08;;;;;;;27.38;25.67;;;22.30;60.60;;;;;;4933902;29;20031;-81
2022/07/22 03:43:35;;;;;;;25.88;24.27;;;22.40;60.30;;;;;;4933759;29;20390;-81
2022/07/22 03:46:01;;;;;;;24.92;23.33;;;22.30;60.70;;;;;;4936060;28;20050;-81
2022/07/22 03:48:27;;;;;;;26.00;24.33;;;22.10;61.60;;;;;;4937691;29;20382;-81
2022/07/22 03:50:53;;;;;;;27.13;25.30;;;21.90;61.90;;;;;;4937496;29;20031;-81
2022/07/22 03:53:20;;;;;;;27.05;25.45;;;21.80;62.10;;;;;;4937238;29;20418;-81
2022/07/22 03:55:46;;;;;;;26.58;24.77;;;21.80;62.30;;;;;;4937505;29;20489;-81
2022/07/22 03:58:12;;;;;;;23.88;22.23;;;21.80;62.20;;;;;;4935746;29;20428;-81
2022/07/22 04:00:38;;;;;;;24.35;22.65;;;21.90;61.40;;;;;;4951476;28;20043;-81
2022/07/22 04:03:04;;;;;;;24.60;22.85;;;21.90;61.30;;;;;;4955489;28;20039;-81
2022/07/22 04:05:30;;;;;;;26.58;24.75;;;21.60;62.40;;;;;;4958495;28;20028;-81
2022/07/22 04:07:56;;;;;;;25.35;23.75;;;21.60;62.70;;;;;;4949131;29;20027;-81
2022/07/22 04:10:23;;;;;;;20.50;19.10;;;21.40;63.70;;;;;;4939473;29;20039;-81
2022/07/22 04:12:49;;;;;;;20.80;19.38;;;21.20;64.60;;;;;;4956378;29;20042;-81
2022/07/22 04:15:15;;;;;;;20.33;18.77;;;21.20;64.90;;;;;;4955939;28;20054;-81
2022/07/22 04:17:41;;;;;;;19.50;18.10;;;21.10;64.80;;;;;;4955007;29;20032;-81
2022/07/22 04:20:07;;;;;;;19.27;17.95;;;21.10;64.90;;;;;;4956078;29;20080;-81
2022/07/22 04:22:33;;;;;;;23.33;21.40;;;21.20;65.00;;;;;;4954675;29;20031;-81
2022/07/22 04:25:00;;;;;;;24.85;23.30;;;21.30;64.50;;;;;;4956418;29;20381;-81
2022/07/22 04:27:26;;;;;;;26.98;25.23;;;21.50;63.80;;;;;;4956093;29;20035;-81
2022/07/22 04:29:52;;;;;;;22.38;20.52;;;21.70;62.90;;;;;;4956111;29;20080;-81
2022/07/22 04:32:18;;;;;;;22.80;21.45;;;21.80;62.30;;;;;;4954338;28;20039;-81
2022/07/22 04:34:44;;;;;;;21.05;19.45;;;21.90;62.00;;;;;;4954672;28;20046;-80
2022/07/22 04:37:11;;;;;;;21.35;19.13;;;22.00;61.80;;;;;;4954451;28;20031;-81
2022/07/22 04:39:37;;;;;;;23.38;21.75;;;21.90;61.60;;;;;;4954655;29;20031;-81
2022/07/22 04:42:03;;;;;;;22.45;20.83;;;22.10;61.10;;;;;;4954608;29;20031;-81
2022/07/22 04:44:29;;;;;;;22.23;20.73;;;22.10;61.10;;;;;;4955936;29;20096;-81
2022/07/22 04:46:55;;;;;;;22.00;20.50;;;22.20;61.00;;;;;;4955279;28;20533;-81
2022/07/22 04:49:21;;;;;;;22.60;20.85;;;22.20;60.70;;;;;;4954644;29;20042;-81
2022/07/22 04:51:47;;;;;;;23.27;21.35;;;22.30;60.60;;;;;;4955273;29;20042;-81
2022/07/22 04:54:13;;;;;;;22.52;20.77;;;22.30;60.30;;;;;;4954444;29;20035;-81
2022/07/22 04:56:39;;;;;;;24.40;22.77;;;22.30;60.40;;;;;;4954374;28;20035;-81
2022/07/22 04:59:06;;;;;;;22.92;21.33;;;22.30;60.40;;;;;;4955585;29;20391;-81
2022/07/22 05:01:32;;;;;;;22.08;20.27;;;22.30;60.10;;;;;;4959000;28;20035;-82
2022/07/22 05:03:58;;;;;;;21.80;20.08;;;22.40;60.30;;;;;;4954348;29;20034;-81
2022/07/22 05:06:24;;;;;;;23.10;21.17;;;22.50;60.30;;;;;;4953239;29;20042;-81
2022/07/22 05:08:50;;;;;;;23.65;22.05;;;22.50;60.20;;;;;;4936242;29;20031;-81
2022/07/22 05:11:16;;;;;;;23.58;21.88;;;22.30;61.00;;;;;;4936340;29;20398;-81
2022/07/22 05:13:42;;;;;;;23.05;21.35;;;22.10;62.00;;;;;;4936059;29;20043;-81
2022/07/22 05:16:08;;;;;;;22.75;21.15;;;21.90;62.50;;;;;;4934401;28;20054;-81
2022/07/22 05:18:34;;;;;;;21.98;20.23;;;21.70;63.50;;;;;;4935734;29;20040;-81
2022/07/22 05:21:01;;;;;;;21.13;19.52;;;21.60;63.90;;;;;;4935593;29;20481;-81
2022/07/22 05:23:28;;;;;;;20.08;18.67;;;21.30;65.30;;;;;;4919072;29;20443;-81
2022/07/22 05:25:54;;;;;;;28.38;26.30;;;21.00;66.60;;;;;;4935632;29;20043;-81
2022/07/22 05:28:20;;;;;;;26.85;25.02;;;21.00;67.60;;;;;;4934701;29;20046;-81
2022/07/22 05:30:46;;;;;;;40.58;37.97;;;20.80;68.70;;;;;;4935143;28;20380;-81
2022/07/22 05:33:12;;;;;;;23.90;22.10;;;20.60;69.90;;;;;;4936118;29;20406;-81
2022/07/22 05:35:38;;;;;;;20.60;18.83;;;20.60;70.60;;;;;;4934240;29;20039;-81
2022/07/22 05:38:05;;;;;;;21.80;20.05;;;20.70;70.90;;;;;;4919115;29;20047;-81
2022/07/22 05:40:32;;;;;;;22.33;20.20;;;20.70;70.80;;;;;;4935638;29;20039;-81
2022/07/22 05:42:58;;;;;;;27.20;24.80;;;20.70;70.80;;;;;;4934424;29;20040;-81
2022/07/22 05:45:24;;;;;;;28.10;26.05;;;20.90;70.70;;;;;;4935202;28;20031;-81
2022/07/22 05:47:50;;;;;;;26.70;24.70;;;21.10;70.50;;;;;;4935645;29;20070;-82
2022/07/22 05:50:16;;;;;;;27.50;25.63;;;21.30;70.00;;;;;;4935234;29;20028;-81
2022/07/22 05:52:42;;;;;;;27.38;25.20;;;21.50;69.00;;;;;;4935340;29;20035;-81
2022/07/22 05:55:09;;;;;;;30.73;28.35;;;21.70;68.50;;;;;;4935414;29;20398;-81
2022/07/22 05:57:36;;;;;;;32.80;30.48;;;21.80;67.90;;;;;;4935254;29;20023;-81
2022/07/22 06:00:03;;;;;;;33.78;31.35;;;21.80;68.30;;;;;;4943565;28;21583;-81
2022/07/22 06:02:29;;;;;;;33.85;31.35;;;21.80;67.90;;;;;;4953509;28;20046;-81
2022/07/22 06:04:56;;;;;;;31.77;29.58;;;21.90;67.50;;;;;;4952833;29;20027;-81
2022/07/22 06:07:22;;;;;;;33.08;30.42;;;21.90;67.40;;;;;;4943215;28;20034;-82
2022/07/22 06:09:49;;;;;;;30.80;28.15;;;21.90;69.30;;;;;;4935314;29;20035;-82
2022/07/22 06:12:15;;;;;;;29.08;26.92;;;21.70;71.10;;;;;;4935161;29;20031;-82
2022/07/22 06:14:41;;;;;;;33.35;31.02;;;21.50;71.70;;;;;;4933928;29;20039;-82
2022/07/22 06:17:07;;;;;;;30.60;28.08;;;21.40;73.10;;;;;;4934842;28;20047;-82
2022/07/22 06:19:33;;;;;;;29.38;27.30;;;21.00;74.30;;;;;;4934566;29;20035;-81
2022/07/22 06:21:59;;;;;;;30.98;28.70;;;21.20;74.00;;;;;;4933556;29;20024;-82
2022/07/22 06:24:25;;;;;;;32.35;29.67;;;21.40;72.90;;;;;;4933497;29;20040;-82
2022/07/22 06:26:51;;;;;;;32.75;30.40;;;21.60;72.40;;;;;;4933256;29;20031;-81
2022/07/22 06:29:17;;;;;;;30.13;27.63;;;21.80;73.40;;;;;;4933131;29;20047;-81
2022/07/22 06:31:43;;;;;;;34.22;31.75;;;21.70;72.60;;;;;;4931089;28;20043;-81
2022/07/22 06:34:09;;;;;;;37.35;34.35;;;21.70;72.50;;;;;;4934304;29;20042;-81
2022/07/22 06:36:36;;;;;;;35.83;33.22;;;21.80;72.70;;;;;;4933502;29;20038;-81
2022/07/22 06:39:02;;;;;;;37.13;34.50;;;21.90;71.70;;;;;;4933190;29;20240;-81
2022/07/22 06:41:28;;;;;;;35.17;32.47;;;21.90;71.80;;;;;;4933391;29;20437;-81
2022/07/22 06:43:54;;;;;;;36.45;33.92;;;22.00;71.70;;;;;;4934280;29;20044;-81
2022/07/22 06:46:20;;;;;;;32.72;30.33;;;21.90;72.50;;;;;;4934054;28;20035;-81
2022/07/22 06:48:46;;;;;;;35.03;32.72;;;21.50;73.50;;;;;;4934360;29;20028;-81
2022/07/22 06:51:12;;;;;;;34.53;32.00;;;21.20;74.40;;;;;;4933143;29;20028;-81
2022/07/22 06:53:38;;;;;;;34.40;31.85;;;21.40;74.80;;;;;;4934140;29;20036;-81
2022/07/22 06:56:05;;;;;;;33.25;30.80;;;21.40;76.20;;;;;;4933162;29;20541;-81
2022/07/22 06:58:31;;;;;;;33.72;31.23;;;21.30;75.30;;;;;;4934039;29;20067;-81
2022/07/22 07:00:57;;;;;;;36.45;34.03;;;21.50;74.70;;;;;;4949892;28;20486;-81
2022/07/22 07:03:25;;;;;;;34.03;31.30;;;21.50;74.90;;;;;;4953259;29;20035;-81
2022/07/22 07:05:52;;;;;;;30.85;28.35;;;21.30;76.90;;;;;;4937792;29;20031;-81
2022/07/22 07:08:18;;;;;;;28.33;25.70;;;21.10;77.90;;;;;;4949444;29;20035;-81
2022/07/22 07:10:44;;;;;;;30.00;27.40;;;21.00;78.90;;;;;;4952112;28;20037;-81
2022/07/22 07:13:10;;;;;;;31.83;29.48;;;21.00;77.70;;;;;;4952086;29;20027;-81
2022/07/22 07:15:36;;;;;;;28.92;26.42;;;21.10;77.90;;;;;;4952348;28;20044;-81
2022/07/22 07:18:02;;;;;;;28.75;26.38;;;21.00;78.80;;;;;;4953316;29;20042;-80
2022/07/22 07:20:29;;;;;;;32.22;29.58;;;21.00;78.20;;;;;;4952539;28;20039;-81
2022/07/22 07:22:55;;;;;;;33.90;31.45;;;21.10;77.60;;;;;;4951654;29;20040;-81
2022/07/22 07:25:21;;;;;;;35.58;33.08;;;21.20;76.80;;;;;;4952970;29;20038;-81
2022/07/22 07:27:48;;;;;;;36.45;33.75;;;21.10;76.50;;;;;;4951779;29;20477;-81
2022/07/22 07:30:14;;;;;;;36.40;33.60;;;21.20;76.60;;;;;;4951104;28;20039;-80
2022/07/22 07:32:40;;;;;;;34.35;31.58;;;21.20;76.50;;;;;;4953140;29;20031;-81
2022/07/22 07:46:36;;;;;;;65.22;61.20;;;21.20;75.90;;;;;;5073063;27;20392;-80
2022/07/22 07:49:02;;;;;;;42.13;38.97;;;21.60;76.30;;;;;;5047016;28;20033;-80
2022/07/22 07:51:28;;;;;;;45.85;42.80;;;21.60;75.20;;;;;;5060401;28;20031;-80
2022/07/22 07:53:54;;;;;;;40.97;37.80;;;21.70;75.50;;;;;;5067677;28;20021;-80
2022/07/22 07:56:20;;;;;;;35.63;32.72;;;21.70;75.50;;;;;;5049994;28;20045;-80
2022/07/22 07:58:46;;;;;;;36.88;33.92;;;21.60;75.40;;;;;;5064146;28;20402;-80
2022/07/22 08:01:12;;;;;;;42.75;39.75;;;21.70;75.50;;;;;;5046846;28;20055;-80
2022/07/22 08:03:39;;;;;;;37.85;35.33;;;21.90;74.80;;;;;;5047866;28;20471;-80
2022/07/22 08:06:05;;;;;;;34.80;32.22;;;21.80;74.70;;;;;;5047413;28;20040;-80
2022/07/22 08:08:31;;;;;;;34.58;31.77;;;21.70;75.00;;;;;;5046642;28;20025;-80
2022/07/22 08:10:57;;;;;;;35.53;33.00;;;21.70;75.60;;;;;;5056275;28;20028;-80
2022/07/22 08:13:23;;;;;;;34.85;32.40;;;21.80;75.20;;;;;;5046519;28;20029;-80
2022/07/22 08:15:49;;;;;;;39.80;36.42;;;21.80;74.90;;;;;;5042874;28;20037;-80
2022/07/22 08:18:15;;;;;;;34.45;31.80;;;21.70;75.40;;;;;;5029737;28;20056;-80
2022/07/22 08:20:41;;;;;;;36.75;34.05;;;21.70;74.80;;;;;;5047413;28;20029;-80
2022/07/22 08:23:07;;;;;;;38.15;35.40;;;21.60;75.60;;;;;;5046101;28;20403;-80
2022/07/22 08:25:33;;;;;;;39.22;36.08;;;21.50;76.00;;;;;;5047316;28;20040;-80
2022/07/22 08:28:00;;;;;;;36.90;34.15;;;21.50;76.00;;;;;;5047395;28;20029;-80
2022/07/22 08:30:28;;;;;;;36.85;34.25;;;21.70;76.10;;;;;;5046795;28;20029;-81
2022/07/22 08:32:55;;;;;;;36.17;33.72;;;21.70;76.20;;;;;;5047291;28;20032;-81
2022/07/22 08:35:21;;;;;;;35.97;33.28;;;21.60;76.70;;;;;;5029174;28;20052;-80
2022/07/22 08:37:47;;;;;;;34.28;31.55;;;21.50;77.10;;;;;;5047244;28;20036;-81
2022/07/22 08:40:14;;;;;;;36.53;33.83;;;21.40;77.10;;;;;;5045497;28;20041;-81
2022/07/22 08:42:42;;;;;;;33.90;31.15;;;21.60;77.20;;;;;;5047222;28;20415;-81
2022/07/22 08:45:08;;;;;;;31.77;29.17;;;21.30;78.80;;;;;;5046658;28;20045;-81
2022/07/22 08:47:34;;;;;;;29.50;27.10;;;21.20;79.30;;;;;;5033829;28;20028;-81
2022/07/22 08:50:00;;;;;;;32.75;30.15;;;21.30;79.10;;;;;;5015804;28;20033;-81
2022/07/22 08:52:26;;;;;;;35.60;32.75;;;21.50;78.10;;;;;;5032959;28;20029;-81
2022/07/22 08:54:52;;;;;;;37.45;34.13;;;21.60;79.60;;;;;;5032637;28;20415;-82
2022/07/22 08:57:19;;;;;;;37.40;34.33;;;21.40;80.00;;;;;;5032712;28;20033;-81
2022/07/22 08:59:55;;;;;;;40.33;36.85;;;21.40;79.40;;;;;;5033899;28;20030;-81
2022/07/22 09:02:23;;;;;;;47.53;43.88;;;21.30;81.00;;;;;;5032263;28;20211;-81
2022/07/22 09:05:01;;;;;;;44.75;41.63;;;21.20;80.60;;;;;;5032108;28;20030;-81
2022/07/22 09:07:35;;;;;;;53.85;50.25;;;21.40;79.80;;;;;;4999718;28;20033;-81
2022/07/22 09:10:06;;;;;;;54.67;50.80;;;21.60;79.40;;;;;;5015856;28;20048;-81
2022/07/22 09:12:34;;;;;;;58.30;53.92;;;21.80;78.90;;;;;;5033545;28;20045;-81
2022/07/22 09:15:01;;;;;;;59.38;55.03;;;21.90;79.20;;;;;;5033473;28;20361;-81
2022/07/22 09:17:31;;;;;;;56.05;52.45;;;21.70;80.50;;;;;;5032015;28;20040;-80
2022/07/22 09:19:58;;;;;;;55.23;51.43;;;21.40;81.40;;;;;;5015725;28;20052;-81
2022/07/22 09:22:35;;;;;;;56.42;52.40;;;21.30;81.90;;;;;;5033408;28;20749;-81
2022/07/22 09:25:29;;;;;;;56.85;53.25;;;21.40;81.30;;;;;;5033621;28;20361;-80
2022/07/22 09:28:19;;;;;;;52.60;49.00;;;21.40;81.90;;;;;;5030812;28;20048;-80
2022/07/22 09:30:47;;;;;;;54.65;50.63;;;21.30;82.20;;;;;;5032660;28;20395;-81
2022/07/22 09:33:13;;;;;;;56.58;52.20;;;21.40;81.40;;;;;;5032842;28;20025;-81
2022/07/22 09:35:39;;;;;;;58.55;54.45;;;21.60;81.00;;;;;;5031756;28;20037;-81
2022/07/22 09:38:07;;;;;;;61.60;57.47;;;21.80;80.40;;;;;;5032678;28;20041;-81
2022/07/22 09:40:38;;;;;;;68.82;63.97;;;22.00;80.10;;;;;;5031725;28;20056;-81
2022/07/22 09:43:12;;;;;;;67.30;62.72;;;22.20;79.80;;;;;;5032118;28;20030;-81
2022/07/22 09:45:58;;;;;;;66.97;62.35;;;22.30;79.50;;;;;;5012054;28;20049;-80
2022/07/22 09:48:24;;;;;;;58.50;54.33;;;22.20;80.70;;;;;;5011715;28;20037;-81
2022/07/22 09:50:51;;;;;;;68.50;63.70;;;22.10;81.40;;;;;;5022312;28;20021;-81
2022/07/22 09:53:19;;;;;;;72.95;67.88;;;22.00;80.90;;;;;;5032670;28;20041;-81
2022/07/22 09:55:45;;;;;;;72.50;67.53;;;22.10;80.70;;;;;;5032522;28;20045;-81
2022/07/22 09:58:12;;;;;;;60.40;56.30;;;22.30;80.40;;;;;;5030253;28;20029;-81
2022/07/22 10:00:39;;;;;;;54.22;50.53;;;22.30;80.00;;;;;;5031434;28;20487;-81
2022/07/22 10:03:07;;;;;;;52.42;49.00;;;22.40;79.20;;;;;;5032263;28;20029;-81
2022/07/22 10:05:35;;;;;;;48.33;44.63;;;22.60;79.50;;;;;;5014611;28;20085;-80
2022/07/22 10:08:02;;;;;;;49.10;45.50;;;22.70;78.90;;;;;;5014744;28;20419;-81
2022/07/22 10:10:28;;;;;;;51.33;47.55;;;22.80;78.50;;;;;;5031043;28;20475;-81
2022/07/22 10:12:56;;;;;;;51.03;47.17;;;22.90;78.60;;;;;;5031049;28;20037;-81
2022/07/22 10:15:23;;;;;;;51.72;48.00;;;23.00;78.80;;;;;;5031922;28;20037;-81
2022/07/22 10:17:51;;;;;;;49.55;45.85;;;23.10;78.80;;;;;;4997599;28;20030;-81
2022/07/22 10:20:22;;;;;;;58.30;53.63;;;23.10;78.80;;;;;;5014776;28;20044;-81
2022/07/22 10:22:56;;;;;;;69.72;64.95;;;23.00;77.90;;;;;;5030542;28;20034;-81
2022/07/22 10:25:25;;;;;;;55.97;51.85;;;23.00;77.10;;;;;;5014873;28;20029;-81
2022/07/22 10:28:02;;;;;;;57.75;53.67;;;23.10;76.90;;;;;;5014783;28;20021;-81
2022/07/22 10:30:33;;;;;;;55.50;51.08;;;23.10;76.20;;;;;;5030810;28;20048;-81
2022/07/22 10:33:10;;;;;;;57.47;53.35;;;23.10;76.40;;;;;;5030722;28;20032;-81
2022/07/22 10:35:48;;;;;;;60.00;55.83;;;23.10;76.30;;;;;;5032047;28;20480;-81
2022/07/22 10:38:14;;;;;;;62.17;57.65;;;23.10;76.40;;;;;;5024789;28;20038;-81
2022/07/22 10:40:53;;;;;;;61.08;56.83;;;23.10;76.10;;;;;;5012066;28;20026;-81
2022/07/22 10:43:25;;;;;;;64.28;59.65;;;23.10;76.10;;;;;;5014406;28;20038;-81
2022/07/22 10:45:59;;;;;;;58.55;54.58;;;23.10;76.50;;;;;;5030807;28;20038;-81
2022/07/22 10:48:37;;;;;;;55.47;51.70;;;22.90;77.40;;;;;;5030420;28;20041;-81
2022/07/22 10:51:07;;;;;;;48.78;45.17;;;22.50;79.10;;;;;;5031666;28;20026;-81
2022/07/22 10:54:01;;;;;;;51.10;47.13;;;22.50;79.00;;;;;;5031536;28;20041;-81
2022/07/22 10:56:32;;;;;;;67.32;62.80;;;22.60;78.70;;;;;;5031674;28;20299;-81
2022/07/22 10:59:21;;;;;;;64.55;59.65;;;22.50;79.00;;;;;;5029142;28;20052;-81
2022/07/22 11:01:50;;;;;;;66.65;62.13;;;22.40;80.00;;;;;;5031059;28;20030;-81
2022/07/22 11:04:24;;;;;;;61.65;57.47;;;22.50;79.70;;;;;;5014323;28;20037;-80
2022/07/22 11:06:55;;;;;;;60.00;55.13;;;22.50;79.90;;;;;;5031233;28;20024;-81
2022/07/22 11:09:23;;;;;;;50.85;46.88;;;22.50;80.50;;;;;;5029860;28;20041;-81
2022/07/22 11:11:51;;;;;;;75.80;70.93;;;22.60;81.80;;;;;;5029658;28;20037;-81
2022/07/22 11:14:28;;;;;;;54.40;50.60;;;22.70;79.10;;;;;;5030833;28;20471;-81
2022/07/22 11:16:56;;;;;;;56.92;52.85;;;22.60;77.30;;;;;;5013583;28;20034;-81
2022/07/22 11:19:24;;;;;;;65.32;60.97;;;22.90;78.10;;;;;;5029915;28;20021;-81
2022/07/22 11:21:52;;;;;;;65.15;60.85;;;23.10;77.40;;;;;;5013712;28;20044;-81
2022/07/22 11:24:19;;;;;;;82.13;75.50;;;23.20;76.70;;;;;;5013827;28;20368;-81
2022/07/22 11:26:50;;;;;;;68.35;63.88;;;23.30;75.50;;;;;;5013731;28;20025;-81
2022/07/22 11:29:39;;;;;;;67.95;63.33;;;23.30;75.00;;;;;;5013184;28;20026;-83
2022/07/22 11:32:06;;;;;;;60.13;56.15;;;23.20;74.80;;;;;;5029496;28;20376;-83
2022/07/22 11:34:33;;;;;;;73.13;68.43;;;23.20;75.20;;;;;;5013597;28;20033;-83
2022/07/22 11:36:59;;;;;;;67.30;62.70;;;23.10;75.10;;;;;;5031173;28;20033;-83
2022/07/22 11:39:26;;;;;;;56.75;52.63;;;23.20;75.60;;;;;;4998550;28;20041;-83
2022/07/22 11:41:56;;;;;;;61.90;57.53;;;23.40;75.90;;;;;;5010375;28;20022;-83
2022/07/22 11:44:30;;;;;;;59.58;55.25;;;23.40;75.80;;;;;;4993553;28;20512;-82
2022/07/22 11:46:58;;;;;;;55.45;51.63;;;23.50;75.70;;;;;;5008224;28;20563;-82
2022/07/22 11:49:26;;;;;;;61.05;56.88;;;23.40;76.60;;;;;;5013479;28;20034;-82
2022/07/22 11:51:52;;;;;;;63.03;58.75;;;23.30;76.40;;;;;;5048810;28;20025;-83
2022/07/22 11:54:18;;;;;;;68.65;63.85;;;23.20;76.80;;;;;;5032974;28;20036;-82
2022/07/22 11:56:44;;;;;;;67.80;63.20;;;23.20;76.60;;;;;;5032937;28;20033;-82
2022/07/22 11:59:15;;;;;;;70.90;66.10;;;23.30;77.10;;;;;;5049338;28;20497;-82
2022/07/22 12:01:41;;;;;;;64.70;60.05;;;23.30;77.20;;;;;;5049022;28;20041;-82
2022/07/22 12:04:08;;;;;;;59.75;55.15;;;23.30;78.20;;;;;;5049427;28;20028;-82
2022/07/22 12:06:38;;;;;;;63.95;59.38;;;23.10;78.20;;;;;;5050641;28;20032;-82
2022/07/22 12:09:11;;;;;;;60.88;56.53;;;23.20;79.10;;;;;;5050266;28;20041;-82
2022/07/22 12:11:39;;;;;;;56.38;52.08;;;23.10;78.90;;;;;;5032465;28;20040;-83
2022/07/22 12:14:08;;;;;;;62.63;58.28;;;23.10;79.10;;;;;;5033107;28;20032;-82
2022/07/22 12:16:34;;;;;;;59.88;55.55;;;23.00;80.10;;;;;;5032240;28;20044;-82
2022/07/22 12:19:04;;;;;;;57.42;53.15;;;23.00;80.30;;;;;;5032954;28;20374;-83
2022/07/22 12:21:35;;;;;;;59.13;54.83;;;22.90;81.30;;;;;;5050225;28;20037;-82
2022/07/22 12:24:06;;;;;;;55.10;51.20;;;22.80;81.90;;;;;;5053350;28;20048;-82
2022/07/22 12:26:38;;;;;;;55.63;51.13;;;22.80;82.40;;;;;;5036423;28;20378;-83
2022/07/22 12:29:21;;;;;;;54.30;50.05;;;22.90;81.70;;;;;;5052895;28;20041;-83
2022/07/22 12:31:56;;;;;;;55.17;50.97;;;23.00;80.60;;;;;;5052541;28;20044;-81
2022/07/22 12:34:54;;;;;;;52.88;48.95;;;23.00;80.90;;;;;;5021275;28;20029;-82
2022/07/22 12:37:24;;;;;;;55.92;51.92;;;22.90;80.60;;;;;;5011942;28;20049;-82
2022/07/22 12:40:03;;;;;;;62.60;58.22;;;22.80;80.60;;;;;;5008580;28;20027;-82
2022/07/22 12:42:37;;;;;;;58.38;54.00;;;22.70;81.60;;;;;;4992218;28;20034;-82